Time;durP1;ratioP1;P1;durP2;ratioP2;P2;SDS_P1;SDS_P2;PMS_P1;PMS_P2;Temp;Humidity;BMP_temperature;BMP_pressure;BME280_temperature;BME280_humidity;BME280_pressure;Samples;Min_cycle;Max_cycle;Signal;HPM_P1;HPM_P2
2023/11/13 00:02:48;;;;;;;13.23;6.55;;;14.50;72.40;;;;;;6100242;29;20366;-72
2023/11/13 00:05:52;;;;;;;17.00;6.95;;;14.50;72.30;;;;;;6099905;29;20047;-75
2023/11/13 00:08:54;;;;;;;13.43;6.50;;;14.40;72.20;;;;;;6098818;29;20032;-73
2023/11/13 00:11:56;;;;;;;11.25;6.47;;;14.40;72.30;;;;;;6099166;29;20131;-74
2023/11/13 00:14:58;;;;;;;14.00;5.75;;;14.40;72.50;;;;;;6097842;29;20063;-73
2023/11/13 00:17:59;;;;;;;17.77;6.20;;;14.40;72.60;;;;;;6097754;29;20040;-72
2023/11/13 00:21:05;;;;;;;13.68;6.50;;;14.30;72.60;;;;;;6113097;29;20036;-73
2023/11/13 00:24:07;;;;;;;11.73;6.32;;;14.30;72.60;;;;;;6099363;29;20127;-72
2023/11/13 00:27:10;;;;;;;18.38;7.65;;;14.30;72.60;;;;;;6098845;29;20032;-72
2023/11/13 00:30:14;;;;;;;12.20;7.10;;;14.30;72.70;;;;;;6112970;29;20498;-73
2023/11/13 00:33:17;;;;;;;13.93;7.32;;;14.30;72.80;;;;;;6097708;29;20104;-73
2023/11/13 00:36:19;;;;;;;14.93;7.45;;;14.30;72.90;;;;;;6113432;29;20103;-73
2023/11/13 00:39:23;;;;;;;12.27;6.75;;;14.30;72.80;;;;;;6112922;29;20051;-73
2023/11/13 00:42:25;;;;;;;15.75;6.05;;;14.30;72.90;;;;;;6097343;29;20082;-73
2023/11/13 00:45:31;;;;;;;13.23;6.32;;;14.30;72.90;;;;;;6096654;29;20366;-73
2023/11/13 00:48:33;;;;;;;14.70;7.13;;;14.30;72.80;;;;;;6065646;29;20103;-72
2023/11/13 00:51:35;;;;;;;12.73;7.10;;;14.30;72.70;;;;;;6065402;29;20072;-73
2023/11/13 00:54:36;;;;;;;14.52;7.07;;;14.30;72.60;;;;;;6081301;29;20164;-74
2023/11/13 00:57:38;;;;;;;11.98;6.18;;;14.30;72.60;;;;;;6081465;29;20032;-72
2023/11/13 01:00:44;;;;;;;11.70;6.45;;;14.30;72.70;;;;;;6066303;29;20032;-73
2023/11/13 01:03:47;;;;;;;15.40;6.97;;;14.20;72.80;;;;;;6081256;29;20299;-73
2023/11/13 01:06:55;;;;;;;13.07;7.03;;;14.20;72.90;;;;;;6098072;29;20905;-73
2023/11/13 01:09:58;;;;;;;16.67;7.30;;;14.20;73.00;;;;;;6080730;29;20512;-73
2023/11/13 01:13:00;;;;;;;12.27;6.70;;;14.20;73.00;;;;;;6097967;29;20493;-74
2023/11/13 01:16:12;;;;;;;18.33;6.57;;;14.20;73.10;;;;;;6080883;29;20036;-74
2023/11/13 01:19:16;;;;;;;10.57;5.53;;;14.20;73.00;;;;;;6080798;29;20103;-74
2023/11/13 01:22:18;;;;;;;10.57;5.88;;;14.10;73.00;;;;;;6079653;29;20108;-74
2023/11/13 01:25:21;;;;;;;13.50;6.72;;;14.10;73.20;;;;;;6081364;29;20040;-74
2023/11/13 01:28:23;;;;;;;13.93;6.03;;;14.10;73.50;;;;;;6065347;29;20032;-74
2023/11/13 01:31:25;;;;;;;9.63;5.68;;;14.10;73.50;;;;;;6098003;29;20032;-74
2023/11/13 01:34:29;;;;;;;9.75;4.80;;;14.10;73.50;;;;;;6080571;29;20492;-73
2023/11/13 01:37:31;;;;;;;11.88;6.30;;;14.10;73.50;;;;;;6097542;29;20560;-74
2023/11/13 01:40:38;;;;;;;10.27;5.60;;;14.10;73.50;;;;;;6097467;29;20039;-74
2023/11/13 01:43:41;;;;;;;10.68;5.32;;;14.10;73.50;;;;;;6064816;29;20135;-74
2023/11/13 01:46:43;;;;;;;14.55;5.70;;;14.10;73.40;;;;;;6087330;29;20419;-73
2023/11/13 01:49:46;;;;;;;12.60;6.13;;;14.10;73.40;;;;;;6092552;29;20177;-73
2023/11/13 01:52:53;;;;;;;12.50;6.05;;;14.20;73.30;;;;;;6108614;29;20048;-72
2023/11/13 01:55:57;;;;;;;10.20;5.88;;;14.10;73.20;;;;;;6095932;29;20054;-74
2023/11/13 01:58:59;;;;;;;11.77;6.55;;;14.10;73.20;;;;;;6096035;29;20079;-74
2023/11/13 02:02:02;;;;;;;15.07;6.53;;;14.10;73.30;;;;;;6079519;29;20055;-74
2023/11/13 02:05:05;;;;;;;11.45;6.32;;;14.00;73.30;;;;;;6111075;29;20063;-74
2023/11/13 02:08:07;;;;;;;10.05;5.47;;;14.10;73.60;;;;;;6080646;29;20453;-72
2023/11/13 02:11:11;;;;;;;10.88;5.38;;;14.10;73.70;;;;;;6095586;29;20407;-74
2023/11/13 02:14:14;;;;;;;11.80;5.18;;;14.00;73.70;;;;;;6079949;29;20187;-72
2023/11/13 02:17:18;;;;;;;13.13;6.30;;;14.10;74.00;;;;;;6095121;29;20073;-72
2023/11/13 02:20:21;;;;;;;16.70;5.55;;;14.00;74.00;;;;;;6096742;29;20039;-73
2023/11/13 02:23:24;;;;;;;11.95;5.72;;;14.00;74.10;;;;;;6079532;29;20051;-73
2023/11/13 02:26:24;;;;;;;10.20;5.78;;;14.10;74.10;;;;;;6110421;29;20044;-73
2023/11/13 02:29:29;;;;;;;12.38;5.82;;;14.00;74.00;;;;;;6096785;29;20085;-73
2023/11/13 02:32:30;;;;;;;11.98;5.95;;;14.10;74.10;;;;;;6099301;29;20427;-74
2023/11/13 02:35:33;;;;;;;6.97;4.13;;;14.10;74.10;;;;;;6101468;29;20534;-74
2023/11/13 02:38:36;;;;;;;8.85;4.10;;;14.10;74.10;;;;;;6101474;29;20448;-73
2023/11/13 02:41:40;;;;;;;9.40;4.07;;;14.20;74.00;;;;;;6105790;29;20039;-74
2023/11/13 02:44:41;;;;;;;5.35;3.22;;;14.20;73.90;;;;;;6115547;29;20047;-72
2023/11/13 02:47:44;;;;;;;12.45;4.60;;;14.20;73.70;;;;;;6101216;29;20064;-73
2023/11/13 02:50:48;;;;;;;8.75;4.07;;;14.30;74.50;;;;;;6083909;29;20059;-73
2023/11/13 02:53:49;;;;;;;10.30;3.97;;;14.30;73.60;;;;;;6084025;29;20047;-73
2023/11/13 02:56:51;;;;;;;10.25;4.60;;;14.30;73.30;;;;;;6101466;29;20040;-75
2023/11/13 02:59:54;;;;;;;6.10;3.88;;;14.20;73.20;;;;;;6100860;29;20039;-74
2023/11/13 03:02:56;;;;;;;7.95;4.20;;;14.20;73.40;;;;;;6084184;29;20028;-75
2023/11/13 03:05:59;;;;;;;10.18;4.05;;;14.10;73.50;;;;;;6100911;29;20036;-74
2023/11/13 03:09:04;;;;;;;6.20;3.85;;;14.10;73.60;;;;;;6084056;29;20040;-73
2023/11/13 03:12:09;;;;;;;12.57;3.95;;;14.10;73.50;;;;;;6104703;29;20040;-73
2023/11/13 03:15:10;;;;;;;13.27;4.13;;;14.20;73.70;;;;;;6084260;29;20151;-73
2023/11/13 03:18:14;;;;;;;5.78;3.50;;;14.20;73.60;;;;;;6069336;29;20036;-73
2023/11/13 03:21:18;;;;;;;7.07;3.55;;;14.10;73.60;;;;;;6083537;29;20059;-73
2023/11/13 03:24:22;;;;;;;7.00;3.65;;;14.20;73.60;;;;;;6083768;29;20055;-74
2023/11/13 03:27:34;;;;;;;8.30;3.45;;;14.20;73.60;;;;;;6083091;29;20028;-74
2023/11/13 03:30:37;;;;;;;5.18;3.15;;;14.30;73.50;;;;;;6099868;29;20064;-74
2023/11/13 03:33:42;;;;;;;6.57;2.90;;;14.30;73.30;;;;;;6099741;29;20110;-74
2023/11/13 03:36:46;;;;;;;6.05;3.45;;;14.30;73.20;;;;;;6082930;29;20143;-73
2023/11/13 03:39:49;;;;;;;7.15;3.30;;;14.30;73.30;;;;;;6099922;29;20506;-72
2023/11/13 03:42:51;;;;;;;8.98;4.07;;;14.40;74.10;;;;;;6082606;29;20036;-73
2023/11/13 03:45:53;;;;;;;7.68;3.17;;;14.30;73.00;;;;;;6082930;29;20115;-73
2023/11/13 03:48:55;;;;;;;6.32;3.13;;;14.30;72.90;;;;;;6099666;29;20039;-73
2023/11/13 03:51:57;;;;;;;8.48;3.45;;;14.30;72.80;;;;;;6098156;29;20043;-72
2023/11/13 03:55:00;;;;;;;4.32;2.80;;;14.30;72.80;;;;;;6099395;29;20128;-73
2023/11/13 03:58:02;;;;;;;5.85;3.03;;;14.30;72.90;;;;;;6099716;29;20040;-74
2023/11/13 04:01:04;;;;;;;5.90;3.28;;;14.30;72.80;;;;;;6099399;29;20803;-74
2023/11/13 04:04:09;;;;;;;8.80;3.53;;;14.30;72.90;;;;;;6100381;29;20466;-72
2023/11/13 04:07:11;;;;;;;4.88;2.72;;;14.30;73.00;;;;;;6102480;29;20096;-72
2023/11/13 04:10:16;;;;;;;6.38;3.28;;;14.20;72.90;;;;;;6116838;29;20028;-71
2023/11/13 04:13:18;;;;;;;4.95;3.10;;;14.30;73.10;;;;;;6100517;29;20100;-73
2023/11/13 04:16:21;;;;;;;6.00;3.63;;;14.20;73.10;;;;;;6098120;29;20055;-73
2023/11/13 04:19:24;;;;;;;4.90;3.05;;;14.20;73.20;;;;;;6113568;29;20036;-73
2023/11/13 04:22:27;;;;;;;5.10;2.45;;;14.20;73.40;;;;;;6099245;29;20047;-73
2023/11/13 04:25:29;;;;;;;6.05;3.10;;;14.20;73.40;;;;;;6099406;29;20129;-73
2023/11/13 04:28:32;;;;;;;6.55;3.70;;;14.30;73.50;;;;;;6082207;29;20116;-73
2023/11/13 04:31:37;;;;;;;9.27;3.45;;;14.30;73.30;;;;;;6098919;29;20020;-73
2023/11/13 04:34:41;;;;;;;4.65;2.95;;;14.40;73.20;;;;;;6099007;29;20095;-74
2023/11/13 04:37:42;;;;;;;8.10;3.97;;;14.30;73.20;;;;;;6099062;29;20035;-74
2023/11/13 04:40:45;;;;;;;5.78;3.65;;;14.30;73.20;;;;;;6097564;29;20544;-73
2023/11/13 04:43:50;;;;;;;6.72;4.07;;;14.30;73.30;;;;;;6099417;29;20032;-72
2023/11/13 04:46:52;;;;;;;6.57;3.58;;;14.40;73.30;;;;;;6090389;29;20168;-73
2023/11/13 04:49:55;;;;;;;6.18;3.20;;;14.40;73.20;;;;;;6098530;29;20036;-74
2023/11/13 04:53:01;;;;;;;5.70;3.05;;;14.40;73.10;;;;;;6099229;29;20091;-74
2023/11/13 04:56:03;;;;;;;9.27;3.75;;;14.50;73.00;;;;;;6099951;29;20036;-74
2023/11/13 04:59:11;;;;;;;6.85;3.47;;;14.40;72.70;;;;;;6098818;29;20138;-73
2023/11/13 05:02:15;;;;;;;9.55;4.88;;;14.40;72.70;;;;;;6098869;29;20126;-73
2023/11/13 05:05:18;;;;;;;6.40;3.70;;;14.40;72.60;;;;;;6081819;29;20565;-74
2023/11/13 05:08:20;;;;;;;9.32;3.88;;;14.40;72.70;;;;;;6098378;29;20032;-75
2023/11/13 05:11:27;;;;;;;10.85;4.28;;;14.30;72.80;;;;;;6080995;29;20079;-73
2023/11/13 05:14:30;;;;;;;9.25;4.13;;;14.30;72.70;;;;;;6097750;29;20078;-73
2023/11/13 05:17:44;;;;;;;8.60;4.40;;;14.30;72.90;;;;;;6098104;29;20028;-73
2023/11/13 05:20:47;;;;;;;7.35;3.85;;;14.30;72.90;;;;;;6080410;29;20127;-73
2023/11/13 05:23:49;;;;;;;5.70;3.28;;;14.30;72.90;;;;;;6080956;29;20056;-74
2023/11/13 05:26:55;;;;;;;7.28;4.38;;;14.40;72.90;;;;;;6064965;29;20036;-73
2023/11/13 05:29:58;;;;;;;6.63;3.58;;;14.40;72.80;;;;;;6097740;29;20048;-73
2023/11/13 05:33:02;;;;;;;7.10;4.20;;;14.30;72.70;;;;;;6080683;29;20036;-73
2023/11/13 05:36:14;;;;;;;10.68;4.07;;;14.30;72.80;;;;;;6080696;29;20040;-73
2023/11/13 05:39:18;;;;;;;8.60;3.55;;;14.30;72.90;;;;;;6097756;29;20043;-72
2023/11/13 05:42:23;;;;;;;7.65;4.15;;;14.30;72.90;;;;;;6097248;29;20040;-73
2023/11/13 05:45:27;;;;;;;7.32;4.22;;;14.20;73.10;;;;;;6097053;29;20123;-74
2023/11/13 05:48:29;;;;;;;7.93;4.10;;;14.20;73.30;;;;;;6096235;29;20040;-73
2023/11/13 05:51:30;;;;;;;6.22;3.55;;;14.20;73.50;;;;;;6111651;29;20678;-74
2023/11/13 05:54:33;;;;;;;9.43;4.53;;;14.20;73.50;;;;;;6097439;29;20075;-73
2023/11/13 05:57:35;;;;;;;11.43;4.35;;;14.20;73.60;;;;;;6095741;29;20048;-73
2023/11/13 06:00:36;;;;;;;6.78;4.00;;;14.20;73.50;;;;;;6095928;29;20055;-73
2023/11/13 06:03:39;;;;;;;5.82;3.92;;;14.20;73.60;;;;;;6097185;29;20477;-74
2023/11/13 06:06:47;;;;;;;6.60;3.42;;;14.20;73.60;;;;;;6079848;29;20036;-73
2023/11/13 06:09:49;;;;;;;7.90;3.85;;;14.20;73.70;;;;;;6097422;29;20062;-73
2023/11/13 06:12:52;;;;;;;5.75;3.40;;;14.20;73.70;;;;;;6097075;29;20157;-72
2023/11/13 06:15:56;;;;;;;6.78;3.03;;;14.20;73.80;;;;;;6097605;29;20059;-74
2023/11/13 06:18:59;;;;;;;4.85;3.10;;;14.20;73.60;;;;;;6097217;29;20525;-74
2023/11/13 06:22:01;;;;;;;7.53;4.45;;;14.20;73.50;;;;;;6095729;29;20060;-73
2023/11/13 06:25:05;;;;;;;7.45;4.15;;;14.20;73.50;;;;;;6097354;29;20055;-74
2023/11/13 06:28:08;;;;;;;13.52;4.57;;;14.20;73.60;;;;;;6095699;29;20036;-73
2023/11/13 06:31:11;;;;;;;5.70;3.63;;;14.10;74.40;;;;;;6064610;29;20414;-73
2023/11/13 06:34:13;;;;;;;5.47;3.45;;;14.10;73.60;;;;;;6095566;29;20405;-73
2023/11/13 06:37:17;;;;;;;7.97;3.70;;;14.10;73.70;;;;;;6111794;29;20032;-74
2023/11/13 06:40:21;;;;;;;8.77;4.03;;;14.10;73.90;;;;;;6095294;29;20745;-73
2023/11/13 06:43:25;;;;;;;7.80;4.38;;;14.10;74.00;;;;;;6095966;29;20477;-74
2023/11/13 06:46:26;;;;;;;4.63;3.25;;;14.00;73.90;;;;;;6096535;29;20040;-73
2023/11/13 06:49:29;;;;;;;6.32;3.47;;;14.00;74.00;;;;;;6063986;29;20050;-73
2023/11/13 06:52:32;;;;;;;5.53;3.75;;;14.00;74.10;;;;;;6096515;29;20036;-73
2023/11/13 06:55:35;;;;;;;17.00;4.20;;;14.00;74.10;;;;;;6079549;29;20141;-73
2023/11/13 06:58:41;;;;;;;45.13;6.30;;;14.00;74.20;;;;;;6079589;29;20041;-73
2023/11/13 07:01:43;;;;;;;22.73;4.18;;;14.00;74.40;;;;;;6079555;29;20043;-73
2023/11/13 07:04:46;;;;;;;7.63;3.65;;;14.00;74.40;;;;;;6083954;29;20040;-75
2023/11/13 07:07:48;;;;;;;3.75;2.42;;;14.00;74.20;;;;;;6105248;29;20413;-73
2023/11/13 07:10:51;;;;;;;7.03;4.30;;;14.10;74.10;;;;;;6079357;29;20051;-74
2023/11/13 07:13:54;;;;;;;10.02;4.78;;;14.10;74.10;;;;;;6096358;29;20517;-74
2023/11/13 07:16:57;;;;;;;8.55;3.55;;;14.10;74.10;;;;;;6079415;29;20084;-73
2023/11/13 07:20:12;;;;;;;6.30;3.47;;;14.10;74.10;;;;;;6082015;29;20223;-73
2023/11/13 07:23:17;;;;;;;5.72;3.33;;;14.10;74.10;;;;;;6100403;29;20239;-74
2023/11/13 07:26:20;;;;;;;4.95;2.75;;;14.10;74.20;;;;;;6099968;29;20035;-73
2023/11/13 07:29:24;;;;;;;6.57;3.72;;;14.10;74.20;;;;;;6083544;29;20601;-74
2023/11/13 07:32:28;;;;;;;4.75;3.65;;;14.10;74.20;;;;;;6099916;29;20480;-74
2023/11/13 07:35:32;;;;;;;6.00;3.00;;;14.20;74.10;;;;;;6099952;29;20044;-73
2023/11/13 07:38:37;;;;;;;8.38;3.90;;;14.30;74.00;;;;;;6083057;29;20033;-74
2023/11/13 07:41:39;;;;;;;8.55;3.30;;;14.30;73.80;;;;;;6048703;29;20406;-74
2023/11/13 07:44:50;;;;;;;6.65;3.22;;;14.30;73.70;;;;;;6057029;29;20037;-74
2023/11/13 07:47:56;;;;;;;5.10;2.55;;;14.40;73.60;;;;;;6027429;29;20347;-74
2023/11/13 07:51:02;;;;;;;4.47;2.83;;;14.50;73.50;;;;;;6026688;29;20314;-74
2023/11/13 07:54:07;;;;;;;5.32;3.10;;;14.50;73.30;;;;;;6027978;29;20061;-74
2023/11/13 07:57:09;;;;;;;3.70;2.65;;;14.50;73.00;;;;;;6020685;29;20084;-73
2023/11/13 08:00:13;;;;;;;5.22;2.78;;;14.50;72.80;;;;;;6040404;29;20056;-74
2023/11/13 08:03:18;;;;;;;5.10;2.55;;;14.50;72.90;;;;;;6026703;29;20112;-74
2023/11/13 08:06:20;;;;;;;9.82;3.42;;;14.50;72.90;;;;;;6011364;29;20045;-73
2023/11/13 08:09:23;;;;;;;4.30;2.50;;;14.50;72.80;;;;;;6011070;29;20549;-73
2023/11/13 08:12:28;;;;;;;6.85;2.88;;;14.60;72.80;;;;;;6064394;29;20064;-74
2023/11/13 08:15:30;;;;;;;6.57;3.20;;;14.60;72.70;;;;;;6099259;29;20115;-73
2023/11/13 08:18:34;;;;;;;8.40;2.75;;;14.60;72.50;;;;;;6099394;29;20032;-75
2023/11/13 08:21:36;;;;;;;3.53;2.35;;;14.60;72.30;;;;;;6098555;29;20156;-73
2023/11/13 08:24:37;;;;;;;6.63;3.17;;;14.70;72.30;;;;;;6098933;29;20150;-73
2023/11/13 08:27:43;;;;;;;7.88;3.72;;;14.70;72.20;;;;;;6082605;29;20556;-74
2023/11/13 08:30:47;;;;;;;8.10;3.25;;;14.70;72.20;;;;;;6098144;29;20119;-73
2023/11/13 08:33:51;;;;;;;6.00;2.95;;;14.80;72.20;;;;;;6081921;29;20047;-74
2023/11/13 08:36:52;;;;;;;4.63;2.50;;;14.80;72.00;;;;;;6081774;29;20532;-73
2023/11/13 08:39:56;;;;;;;8.15;3.28;;;14.90;71.90;;;;;;6098533;29;20036;-73
2023/11/13 08:43:02;;;;;;;5.47;3.13;;;15.00;71.90;;;;;;6098529;29;20134;-74
2023/11/13 08:46:07;;;;;;;7.72;3.25;;;15.10;71.70;;;;;;6098765;29;20484;-73
2023/11/13 08:49:09;;;;;;;9.77;4.28;;;15.20;71.50;;;;;;6114289;29;20032;-73
2023/11/13 08:52:11;;;;;;;12.45;3.22;;;15.30;71.20;;;;;;6098661;29;20335;-73
2023/11/13 08:55:25;;;;;;;10.35;4.15;;;15.30;70.80;;;;;;6099137;29;20060;-74
2023/11/13 08:58:30;;;;;;;5.53;3.00;;;15.30;70.70;;;;;;6113191;29;20146;-74
2023/11/13 09:01:32;;;;;;;9.05;4.05;;;15.40;70.60;;;;;;6097272;29;20059;-74
2023/11/13 09:04:36;;;;;;;10.30;3.90;;;15.40;70.80;;;;;;6112986;29;20446;-74
2023/11/13 09:07:38;;;;;;;6.40;3.78;;;15.50;70.70;;;;;;6098040;29;20061;-73
2023/11/13 09:10:44;;;;;;;6.53;3.85;;;15.50;70.70;;;;;;6097896;29;20089;-74
2023/11/13 09:13:48;;;;;;;7.05;3.80;;;15.70;70.30;;;;;;6092781;29;20044;-73
2023/11/13 09:16:50;;;;;;;11.82;4.47;;;15.70;69.70;;;;;;6097565;29;20469;-74
2023/11/13 09:19:55;;;;;;;9.88;3.90;;;15.70;69.20;;;;;;6112208;29;20028;-74
2023/11/13 09:22:55;;;;;;;8.77;4.00;;;15.70;69.40;;;;;;6097453;29;20573;-75
2023/11/13 09:25:57;;;;;;;13.57;4.82;;;15.80;69.70;;;;;;6097905;29;20077;-74
2023/11/13 09:29:01;;;;;;;8.50;4.47;;;15.90;69.70;;;;;;6096494;29;20674;-74
2023/11/13 09:32:05;;;;;;;7.28;4.00;;;16.00;69.40;;;;;;6096081;29;20025;-75
2023/11/13 09:35:18;;;;;;;10.65;5.13;;;16.20;69.10;;;;;;6097066;29;20083;-74
2023/11/13 09:38:18;;;;;;;11.90;5.53;;;16.30;68.60;;;;;;6094729;29;20214;-73
2023/11/13 09:41:26;;;;;;;9.98;4.38;;;16.30;68.10;;;;;;6094330;29;20107;-73
2023/11/13 09:44:32;;;;;;;14.40;4.88;;;16.30;68.20;;;;;;6095734;29;20043;-72
2023/11/13 09:47:42;;;;;;;5.55;3.88;;;16.40;68.10;;;;;;6063966;29;20071;-74
2023/11/13 09:50:50;;;;;;;7.85;3.63;;;16.40;67.90;;;;;;6096667;29;20083;-74
2023/11/13 09:54:08;;;;;;;8.90;4.40;;;16.40;67.70;;;;;;6080813;29;20115;-74
2023/11/13 09:57:13;;;;;;;11.80;4.53;;;16.40;67.80;;;;;;6098160;29;20115;-74
2023/11/13 10:00:32;;;;;;;6.43;3.53;;;16.50;67.90;;;;;;6065003;29;20032;-73
2023/11/13 10:03:35;;;;;;;;;;;16.50;68.20;;;;;;6096222;29;20055;-73
2023/11/13 10:06:43;;;;;;;4.97;2.63;;;16.60;67.90;;;;;;6080388;29;19915;-74
2023/11/13 10:10:07;;;;;;;4.15;2.40;;;16.70;67.60;;;;;;6097045;29;20438;-73
2023/11/13 10:13:14;;;;;;;5.05;2.88;;;16.70;67.60;;;;;;6080450;29;20032;-73
2023/11/13 10:16:23;;;;;;;4.88;2.63;;;16.60;67.00;;;;;;6096557;29;20373;-74
2023/11/13 10:19:25;;;;;;;18.55;5.50;;;16.60;67.20;;;;;;6097043;29;20041;-73
2023/11/13 10:22:38;;;;;;;6.10;3.85;;;16.60;67.60;;;;;;6080027;29;20448;-73
2023/11/13 10:25:56;;;;;;;8.82;3.70;;;16.60;67.60;;;;;;6064026;29;20131;-73
2023/11/13 10:29:19;;;;;;;5.50;2.60;;;16.60;67.70;;;;;;6096948;29;20127;-74
2023/11/13 10:32:31;;;;;;;7.10;3.50;;;16.70;67.50;;;;;;6096867;29;20036;-73
2023/11/13 10:35:38;;;;;;;6.82;3.08;;;16.70;67.10;;;;;;6079943;29;20060;-73
2023/11/13 10:38:56;;;;;;;5.32;2.50;;;16.70;66.90;;;;;;6096398;29;20024;-74
2023/11/13 10:41:59;;;;;;;6.63;3.22;;;16.60;66.80;;;;;;6096720;29;20028;-74
2023/11/13 10:45:03;;;;;;;8.10;3.63;;;16.60;66.80;;;;;;6096164;29;20036;-74
2023/11/13 10:48:08;;;;;;;9.38;4.35;;;16.60;67.10;;;;;;6079917;29;20470;-74
2023/11/13 10:51:13;;;;;;;8.80;3.50;;;16.60;67.00;;;;;;6110975;29;20733;-73
2023/11/13 10:54:17;;;;;;;11.88;3.72;;;16.70;67.10;;;;;;6098342;29;20056;-74
2023/11/13 10:57:25;;;;;;;9.38;3.08;;;16.70;67.00;;;;;;6099608;29;20047;-75
2023/11/13 11:00:29;;;;;;;5.90;3.35;;;16.80;66.80;;;;;;6100645;29;20367;-72
2023/11/13 11:03:37;;;;;;;8.23;3.35;;;16.80;66.70;;;;;;6100519;29;20047;-73
2023/11/13 11:06:41;;;;;;;5.15;3.00;;;16.80;66.60;;;;;;6101745;29;20445;-73
2023/11/13 11:09:45;;;;;;;7.22;4.13;;;16.90;66.60;;;;;;6101211;29;20036;-74
2023/11/13 11:13:03;;;;;;;9.20;4.05;;;16.90;66.50;;;;;;6116388;29;20457;-72
2023/11/13 11:16:36;;;;;;;9.55;3.97;;;16.90;66.80;;;;;;6113439;29;20121;-74
2023/11/13 11:19:44;;;;;;;10.82;4.85;;;16.90;66.80;;;;;;6114380;29;20381;-74
2023/11/13 11:22:52;;;;;;;13.55;5.07;;;16.90;66.70;;;;;;6128412;29;20040;-75
2023/11/13 11:25:56;;;;;;;15.85;6.10;;;16.90;66.90;;;;;;6111158;29;20107;-74
2023/11/13 11:28:59;;;;;;;15.38;6.40;;;17.00;67.00;;;;;;6095111;29;20123;-73
2023/11/13 11:32:21;;;;;;;12.50;4.80;;;17.10;67.00;;;;;;6100810;29;20039;-73
2023/11/13 11:35:35;;;;;;;11.07;4.68;;;17.00;66.90;;;;;;6102764;29;20052;-75
2023/11/13 11:38:37;;;;;;;7.68;3.92;;;17.00;66.80;;;;;;6099946;29;20036;-74
2023/11/13 11:41:48;;;;;;;13.70;4.55;;;17.10;66.70;;;;;;6098808;29;20066;-74
2023/11/13 11:45:02;;;;;;;10.77;4.57;;;17.00;66.60;;;;;;6099769;29;20040;-74
2023/11/13 11:48:06;;;;;;;8.82;3.80;;;17.10;66.70;;;;;;6075579;29;20123;-75
2023/11/13 11:51:22;;;;;;;13.98;5.13;;;17.10;66.60;;;;;;6076660;29;20037;-74
2023/11/13 11:54:23;;;;;;;8.35;4.40;;;17.10;66.70;;;;;;6059498;29;20032;-73
2023/11/13 11:57:30;;;;;;;9.50;4.60;;;17.20;66.70;;;;;;6075405;29;20080;-74
2023/11/13 12:00:33;;;;;;;10.70;4.97;;;17.20;66.80;;;;;;6076312;29;20139;-75
2023/11/13 12:03:37;;;;;;;8.43;4.45;;;17.20;66.50;;;;;;6075067;29;20139;-74
2023/11/13 12:06:40;;;;;;;9.27;4.75;;;17.20;66.60;;;;;;6074397;29;20040;-74
2023/11/13 12:09:44;;;;;;;14.75;5.82;;;17.20;66.90;;;;;;6074911;29;20122;-74
2023/11/13 12:12:46;;;;;;;14.70;5.72;;;17.10;67.00;;;;;;6075565;29;20120;-73
2023/11/13 12:15:48;;;;;;;14.32;4.97;;;17.20;67.10;;;;;;6042708;29;20453;-74
2023/11/13 12:18:52;;;;;;;5.93;2.72;;;17.20;67.10;;;;;;6073990;29;20183;-75
2023/11/13 12:21:56;;;;;;;10.23;3.70;;;17.20;67.00;;;;;;6075608;29;20631;-73
2023/11/13 12:24:57;;;;;;;11.07;4.57;;;17.20;66.90;;;;;;6073460;29;20151;-73
2023/11/13 12:28:00;;;;;;;10.77;4.50;;;17.20;67.00;;;;;;6075403;29;20035;-74
2023/11/13 12:31:23;;;;;;;16.90;4.28;;;17.20;67.30;;;;;;6073885;29;20037;-74
2023/11/13 12:34:26;;;;;;;16.38;5.38;;;17.30;67.30;;;;;;6079595;29;20040;-74
2023/11/13 12:37:29;;;;;;;16.40;5.10;;;17.60;67.20;;;;;;6058536;29;20083;-73
2023/11/13 12:40:33;;;;;;;12.63;4.32;;;17.80;66.90;;;;;;6075033;29;20036;-74
2023/11/13 12:43:43;;;;;;;14.70;6.32;;;18.00;66.50;;;;;;6058902;29;20190;-74
2023/11/13 12:47:08;;;;;;;10.00;5.40;;;18.10;66.20;;;;;;6064181;29;20044;-73
2023/11/13 12:50:23;;;;;;;17.40;4.70;;;18.30;65.90;;;;;;6088726;29;20048;-73
2023/11/13 12:53:29;;;;;;;11.07;4.78;;;18.50;65.30;;;;;;6074421;29;20048;-75
2023/11/13 12:56:34;;;;;;;9.25;5.32;;;18.70;64.70;;;;;;6058030;29;20070;-74
2023/11/13 12:59:36;;;;;;;12.50;4.82;;;18.80;64.50;;;;;;6074633;29;20108;-73
2023/11/13 13:02:43;;;;;;;11.90;4.43;;;18.80;64.10;;;;;;6089049;29;20120;-75
2023/11/13 13:05:47;;;;;;;8.23;3.83;;;18.80;63.70;;;;;;6057253;29;20110;-74
2023/11/13 13:08:56;;;;;;;14.52;5.65;;;18.80;63.50;;;;;;6057141;29;20331;-74
2023/11/13 13:12:00;;;;;;;11.85;5.78;;;18.80;63.30;;;;;;6057524;29;20033;-73
2023/11/13 13:15:04;;;;;;;10.02;5.53;;;18.70;63.60;;;;;;6057913;29;20135;-73
2023/11/13 13:18:07;;;;;;;8.95;5.90;;;18.60;63.90;;;;;;6074550;29;20048;-74
2023/11/13 13:21:10;;;;;;;12.20;6.30;;;18.60;64.10;;;;;;6071660;29;20144;-74
2023/11/13 13:24:12;;;;;;;12.35;6.18;;;18.60;64.30;;;;;;6072878;29;20036;-73
2023/11/13 13:27:15;;;;;;;15.95;6.05;;;18.50;64.30;;;;;;6072612;29;20063;-74
2023/11/13 13:30:18;;;;;;;11.27;6.30;;;18.40;64.70;;;;;;6088180;29;20033;-73
2023/11/13 13:33:23;;;;;;;21.70;7.82;;;18.30;64.80;;;;;;6088609;29;20056;-74
2023/11/13 13:36:25;;;;;;;16.42;6.13;;;18.20;65.10;;;;;;6088700;29;20071;-75
2023/11/13 13:39:26;;;;;;;9.88;4.63;;;18.10;65.50;;;;;;6074379;29;20072;-75
2023/11/13 13:42:30;;;;;;;12.48;6.50;;;17.90;65.90;;;;;;6074318;29;20044;-73
2023/11/13 13:45:32;;;;;;;8.60;4.32;;;17.90;66.40;;;;;;6076961;29;20060;-73
2023/11/13 13:48:35;;;;;;;9.38;4.10;;;17.80;66.60;;;;;;6111692;29;20059;-74
2023/11/13 13:51:42;;;;;;;11.73;4.05;;;17.80;66.60;;;;;;6096928;29;20686;-73
2023/11/13 13:54:50;;;;;;;10.40;4.25;;;17.80;66.60;;;;;;6096327;29;20039;-73
2023/11/13 13:57:54;;;;;;;9.35;4.55;;;17.70;66.80;;;;;;6096877;29;20636;-74
2023/11/13 14:00:57;;;;;;;17.27;5.78;;;17.70;67.00;;;;;;6096106;29;20048;-75
2023/11/13 14:04:00;;;;;;;12.57;4.15;;;17.60;67.00;;;;;;6100954;29;20034;-73
2023/11/13 14:07:03;;;;;;;15.52;5.25;;;17.60;67.30;;;;;;6101857;29;20067;-74
2023/11/13 14:10:07;;;;;;;10.40;4.63;;;17.60;67.50;;;;;;6095971;29;20040;-74
2023/11/13 14:13:12;;;;;;;15.40;5.57;;;17.60;67.60;;;;;;6100296;29;20426;-74
2023/11/13 14:16:16;;;;;;;9.15;4.93;;;17.60;67.70;;;;;;6103399;29;20059;-74
2023/11/13 14:19:20;;;;;;;7.75;4.35;;;17.60;67.90;;;;;;6102413;29;20051;-72
2023/11/13 14:22:25;;;;;;;10.75;5.13;;;17.50;68.00;;;;;;6103247;29;20047;-76
2023/11/13 14:25:28;;;;;;;8.00;4.03;;;17.50;68.20;;;;;;6096494;29;20187;-74
2023/11/13 14:28:35;;;;;;;9.40;3.80;;;17.50;68.40;;;;;;6103822;29;20035;-75
2023/11/13 14:31:39;;;;;;;8.45;4.32;;;17.50;68.50;;;;;;6100758;29;20110;-73
2023/11/13 14:34:43;;;;;;;13.23;5.95;;;17.40;68.80;;;;;;6102473;29;20123;-73
2023/11/13 14:37:54;;;;;;;10.15;4.60;;;17.30;69.10;;;;;;6102582;29;20029;-74
2023/11/13 14:40:58;;;;;;;8.18;3.53;;;17.30;69.30;;;;;;6085941;29;20138;-76
2023/11/13 14:44:01;;;;;;;11.80;3.92;;;17.30;69.60;;;;;;6100450;29;20134;-74
2023/11/13 14:47:04;;;;;;;7.95;3.92;;;17.20;69.80;;;;;;6100911;29;20027;-74
2023/11/13 14:50:16;;;;;;;6.80;4.03;;;17.20;70.00;;;;;;6100735;29;20107;-74
2023/11/13 14:53:19;;;;;;;15.35;5.05;;;17.20;70.10;;;;;;6069649;29;20036;-73
2023/11/13 14:56:23;;;;;;;7.38;3.38;;;17.20;70.30;;;;;;6084082;29;20052;-74
2023/11/13 14:59:25;;;;;;;10.02;3.88;;;17.20;70.50;;;;;;6104699;29;20028;-73
2023/11/13 15:02:27;;;;;;;9.85;4.65;;;17.10;70.50;;;;;;6103911;29;20189;-74
2023/11/13 15:05:30;;;;;;;12.35;5.03;;;17.10;70.60;;;;;;6083661;29;20063;-73
2023/11/13 15:08:32;;;;;;;8.05;4.15;;;17.10;70.80;;;;;;6083825;29;20362;-73
2023/11/13 15:11:35;;;;;;;9.00;3.83;;;17.00;70.80;;;;;;6083389;29;20044;-72
2023/11/13 15:14:41;;;;;;;11.25;4.35;;;16.90;70.80;;;;;;6083680;29;20052;-73
2023/11/13 15:17:44;;;;;;;12.30;4.88;;;17.10;71.10;;;;;;6067815;29;20044;-75
2023/11/13 15:20:47;;;;;;;10.90;3.83;;;16.90;71.00;;;;;;6087001;29;20755;-74
2023/11/13 15:23:49;;;;;;;6.70;3.80;;;16.90;71.10;;;;;;6083658;29;20068;-74
2023/11/13 15:27:12;;;;;;;7.97;4.50;;;16.90;71.20;;;;;;6083391;29;20421;-73
2023/11/13 15:30:19;;;;;;;15.40;5.50;;;16.90;71.50;;;;;;6082729;29;20119;-73
2023/11/13 15:33:23;;;;;;;16.98;4.60;;;16.80;71.50;;;;;;6099818;29;20477;-74
2023/11/13 15:36:28;;;;;;;9.60;4.32;;;16.80;71.70;;;;;;6100282;29;20595;-74
2023/11/13 15:39:32;;;;;;;8.77;3.95;;;16.80;72.00;;;;;;6098895;29;20029;-74
2023/11/13 15:42:36;;;;;;;18.25;5.90;;;16.70;72.20;;;;;;6100039;29;20036;-73
2023/11/13 15:45:39;;;;;;;12.30;4.93;;;16.70;72.40;;;;;;6067493;29;20104;-73
2023/11/13 15:48:46;;;;;;;7.85;3.83;;;16.60;72.50;;;;;;6098597;29;20040;-75
2023/11/13 15:51:50;;;;;;;10.30;4.82;;;16.70;72.60;;;;;;6099644;29;20137;-74
2023/11/13 15:54:51;;;;;;;20.45;5.20;;;16.70;72.70;;;;;;6099787;29;20040;-72
2023/11/13 15:57:53;;;;;;;13.90;4.60;;;16.60;72.50;;;;;;6099902;29;20083;-73